createdAt,value
2019-05-25T00:01:01.465Z,11.00
2019-05-25T00:02:06.518Z,10.90
2019-05-25T00:03:10.907Z,10.90
2019-05-25T00:04:18.074Z,10.90
2019-05-25T00:05:24.241Z,10.90
2019-05-25T00:06:29.222Z,10.90
2019-05-25T00:07:33.655Z,10.80
2019-05-25T00:08:38.609Z,10.90
2019-05-25T00:09:43.198Z,10.80
2019-05-25T00:10:48.205Z,10.80
2019-05-25T00:11:52.556Z,10.80
2019-05-25T00:12:58.901Z,10.90
2019-05-25T00:14:03.288Z,10.90
2019-05-25T00:15:09.858Z,10.90
2019-05-25T00:16:15.997Z,10.80
2019-05-25T00:17:21.054Z,11.00
2019-05-25T00:18:27.574Z,11.00
2019-05-25T00:19:32.808Z,11.00
2019-05-25T00:20:39.060Z,10.90
2019-05-25T00:21:44.113Z,10.90
2019-05-25T00:22:48.562Z,10.90
2019-05-25T00:23:53.785Z,11.00
2019-05-25T00:24:58.396Z,10.90
2019-05-25T00:26:03.345Z,11.00
2019-05-25T00:27:08.979Z,11.00
2019-05-25T00:28:14.020Z,11.00
2019-05-25T00:29:18.474Z,11.00
2019-05-25T00:30:23.942Z,10.90
2019-05-25T00:31:29.960Z,11.00
2019-05-25T00:32:36.669Z,11.00
2019-05-25T00:33:42.786Z,11.10
2019-05-25T00:34:49.531Z,11.00
2019-05-25T00:35:56.501Z,11.00
2019-05-25T00:37:01.448Z,11.30
2019-05-25T00:38:05.822Z,11.50
2019-05-25T00:39:10.787Z,11.40
2019-05-25T00:40:15.827Z,11.40
2019-05-25T00:41:21.018Z,11.40
2019-05-25T00:42:26.343Z,11.40
2019-05-25T00:43:32.485Z,11.50
2019-05-25T00:44:36.929Z,11.50
2019-05-25T00:45:41.927Z,11.70
2019-05-25T00:46:46.402Z,11.80
2019-05-25T00:47:52.569Z,11.90
2019-05-25T00:48:57.068Z,12.00
2019-05-25T00:50:02.070Z,12.00
2019-05-25T00:51:07.612Z,12.00
2019-05-25T00:52:13.878Z,12.00
2019-05-25T00:53:18.313Z,12.00
2019-05-25T00:54:27.876Z,12.10
2019-05-25T00:55:31.222Z,12.20
2019-05-25T00:56:36.243Z,12.30
2019-05-25T00:57:40.675Z,12.30
2019-05-25T00:58:45.633Z,12.40
2019-05-25T00:59:50.021Z,12.50
2019-05-25T01:00:55.115Z,12.40
2019-05-25T01:01:59.784Z,12.40
2019-05-25T01:03:04.718Z,12.40
2019-05-25T01:04:09.144Z,12.60
2019-05-25T01:05:14.287Z,12.60
2019-05-25T01:06:19.099Z,12.60
2019-05-25T01:07:25.592Z,12.50
2019-05-25T01:08:30.071Z,12.40
2019-05-25T01:09:36.822Z,12.30
2019-05-25T01:10:43.015Z,12.30
2019-05-25T01:11:48.053Z,12.30
2019-05-25T01:12:52.580Z,12.30
2019-05-25T01:13:58.771Z,12.40
2019-05-25T01:15:04.349Z,12.40
2019-05-25T01:16:09.291Z,12.40
2019-05-25T01:17:15.486Z,12.50
2019-05-25T01:18:20.674Z,12.50
2019-05-25T01:19:25.256Z,12.50
2019-05-25T01:20:30.792Z,12.40
2019-05-25T01:21:35.291Z,12.50
2019-05-25T01:22:42.216Z,12.50
2019-05-25T01:23:46.407Z,12.50
2019-05-25T01:24:51.342Z,12.50
2019-05-25T01:25:55.814Z,12.40
2019-05-25T01:27:00.852Z,12.40
2019-05-25T01:28:05.326Z,12.20
2019-05-25T01:29:10.401Z,12.20
2019-05-25T01:30:15.549Z,12.20
2019-05-25T01:31:20.692Z,12.20
2019-05-25T01:32:25.105Z,12.00
2019-05-25T01:33:30.130Z,12.10
2019-05-25T01:34:34.827Z,12.00
2019-05-25T01:35:39.775Z,12.00
2019-05-25T01:36:44.217Z,11.90
2019-05-25T01:37:49.194Z,12.00
2019-05-25T01:38:53.595Z,11.90
2019-05-25T01:39:58.577Z,11.90
2019-05-25T01:41:03.044Z,11.90
2019-05-25T01:42:08.159Z,11.80
2019-05-25T01:43:12.765Z,11.80
2019-05-25T01:44:17.691Z,11.70
2019-05-25T01:45:23.126Z,11.80
2019-05-25T01:46:28.632Z,11.80
2019-05-25T01:47:33.067Z,11.80
2019-05-25T01:48:39.020Z,11.80
2019-05-25T01:49:43.466Z,11.90
2019-05-25T01:50:48.473Z,11.90
2019-05-25T01:51:52.852Z,11.80
2019-05-25T01:52:57.886Z,11.90
2019-05-25T01:54:03.217Z,11.90
2019-05-25T01:55:11.677Z,11.80
2019-05-25T01:56:16.116Z,11.80
2019-05-25T01:57:21.386Z,11.70
2019-05-25T01:58:27.901Z,11.70
2019-05-25T01:59:34.678Z,11.60
2019-05-25T02:00:40.030Z,11.50
2019-05-25T02:01:45.199Z,11.40
2019-05-25T02:02:52.203Z,11.50
2019-05-25T02:03:57.381Z,11.50
2019-05-25T02:05:01.883Z,11.60
2019-05-25T02:06:06.906Z,11.70
2019-05-25T02:07:11.292Z,11.60
2019-05-25T02:08:16.223Z,11.70
2019-05-25T02:09:20.960Z,11.70
2019-05-25T02:10:28.155Z,11.70
2019-05-25T02:11:32.492Z,11.70
2019-05-25T02:12:37.612Z,11.70
2019-05-25T02:13:42.010Z,11.80
2019-05-25T02:14:46.958Z,11.90
2019-05-25T02:15:51.273Z,11.90
2019-05-25T02:16:56.226Z,11.90
2019-05-25T02:18:00.574Z,12.00
2019-05-25T02:19:05.864Z,12.00
2019-05-25T02:20:10.710Z,12.10
2019-05-25T02:21:18.815Z,12.20
2019-05-25T02:22:23.132Z,12.20
2019-05-25T02:23:28.148Z,12.40
2019-05-25T02:24:32.610Z,12.30
2019-05-25T02:25:39.360Z,12.30
2019-05-25T02:26:43.727Z,12.20
2019-05-25T02:27:48.776Z,12.20
2019-05-25T02:28:53.196Z,12.30
2019-05-25T02:29:59.363Z,12.50
2019-05-25T02:31:03.772Z,12.60
2019-05-25T02:32:08.753Z,12.70
2019-05-25T02:33:13.099Z,12.80
2019-05-25T02:34:18.144Z,13.00
2019-05-25T02:35:26.940Z,13.10
2019-05-25T02:36:31.867Z,13.20
2019-05-25T02:37:36.200Z,13.30
2019-05-25T02:38:41.116Z,13.30
2019-05-25T02:39:45.446Z,13.30
2019-05-25T02:40:50.353Z,13.20
2019-05-25T02:41:54.760Z,13.10
2019-05-25T02:42:59.671Z,13.20
2019-05-25T02:44:04.629Z,13.10
2019-05-25T02:45:09.873Z,12.90
2019-05-25T02:46:15.376Z,12.90
2019-05-25T02:47:20.328Z,12.80
2019-05-25T02:48:26.521Z,12.70
2019-05-25T02:49:31.481Z,12.80
2019-05-25T02:50:35.782Z,12.90
2019-05-25T02:51:40.869Z,13.00
2019-05-25T02:52:45.238Z,13.10
2019-05-25T02:53:50.216Z,13.30
2019-05-25T02:54:54.536Z,13.40
2019-05-25T02:55:59.428Z,13.50
2019-05-25T02:57:03.850Z,13.50
2019-05-25T02:58:08.820Z,13.40
2019-05-25T02:59:13.410Z,13.40
2019-05-25T03:00:20.792Z,13.20
2019-05-25T03:01:26.660Z,13.10
2019-05-25T03:02:31.632Z,13.20
2019-05-25T03:03:37.815Z,13.40
2019-05-25T03:04:44.199Z,13.60
2019-05-25T03:05:50.014Z,13.50
2019-05-25T03:06:55.663Z,13.50
2019-05-25T03:08:00.202Z,13.60
2019-05-25T03:09:07.783Z,13.70
2019-05-25T03:10:13.123Z,13.80
2019-05-25T03:11:18.992Z,13.80
2019-05-25T03:12:23.884Z,13.80
2019-05-25T03:13:31.820Z,13.80
2019-05-25T03:14:36.229Z,13.70
2019-05-25T03:15:41.358Z,13.80
2019-05-25T03:16:45.834Z,13.50
2019-05-25T03:17:50.728Z,13.50
2019-05-25T03:18:55.064Z,13.50
2019-05-25T03:20:00.034Z,13.60
2019-05-25T03:21:04.452Z,13.60
2019-05-25T03:22:10.258Z,13.80
2019-05-25T03:23:14.719Z,13.70
2019-05-25T03:24:19.638Z,13.60
2019-05-25T03:25:24.097Z,13.20
2019-05-25T03:26:29.175Z,13.10
2019-05-25T03:27:33.545Z,13.30
2019-05-25T03:28:38.883Z,13.30
2019-05-25T03:29:43.237Z,13.10
2019-05-25T03:30:48.341Z,13.00
2019-05-25T03:31:53.776Z,13.20
2019-05-25T03:32:58.738Z,13.30
2019-05-25T03:34:04.241Z,13.00
2019-05-25T03:35:10.532Z,12.80
2019-05-25T03:36:15.059Z,12.80
2019-05-25T03:37:20.028Z,12.70
2019-05-25T03:38:24.556Z,12.70
2019-05-25T03:39:29.604Z,12.60
2019-05-25T03:40:33.929Z,12.80
2019-05-25T03:41:38.844Z,12.90
2019-05-25T03:42:43.185Z,13.00
2019-05-25T03:43:48.116Z,13.10
2019-05-25T03:44:52.502Z,13.40
2019-05-25T03:45:58.541Z,13.10
2019-05-25T03:47:03.097Z,13.10
2019-05-25T03:48:08.232Z,13.20
2019-05-25T03:49:12.568Z,13.30
2019-05-25T03:50:17.763Z,13.20
2019-05-25T03:51:22.209Z,13.60
2019-05-25T03:52:27.115Z,13.80
2019-05-25T03:53:31.523Z,13.80
2019-05-25T03:54:36.417Z,13.60
2019-05-25T03:55:40.732Z,13.60
2019-05-25T03:56:45.819Z,13.60
2019-05-25T03:57:50.249Z,13.70
2019-05-25T03:58:55.159Z,13.70
2019-05-25T03:59:59.516Z,13.80
2019-05-25T04:01:04.452Z,13.70
2019-05-25T04:02:08.806Z,13.90
2019-05-25T04:03:13.745Z,13.80
2019-05-25T04:04:18.089Z,13.50
2019-05-25T04:05:23.231Z,13.20
2019-05-25T04:06:27.636Z,13.20
2019-05-25T04:07:32.728Z,13.40
2019-05-25T04:08:37.249Z,13.70
2019-05-25T04:09:42.180Z,13.70
2019-05-25T04:10:46.577Z,13.70
2019-05-25T04:13:07.923Z,13.70
2019-05-25T04:14:12.960Z,13.80
2019-05-25T04:15:17.353Z,13.90
2019-05-25T04:16:22.358Z,13.80
2019-05-25T04:17:26.649Z,13.90
2019-05-25T04:18:32.386Z,14.20
2019-05-25T04:19:36.741Z,14.20
2019-05-25T04:20:41.697Z,14.30
2019-05-25T04:21:46.011Z,14.20
2019-05-25T04:22:52.991Z,14.20
2019-05-25T04:23:57.285Z,14.30
2019-05-25T04:25:02.204Z,14.20
2019-05-25T04:26:21.352Z,14.00
2019-05-25T04:27:15.412Z,13.80
2019-05-25T04:28:19.741Z,13.60
2019-05-25T04:29:24.761Z,13.40
2019-05-25T04:30:29.096Z,13.30
2019-05-25T04:31:35.594Z,13.10
2019-05-25T04:32:39.880Z,13.00
2019-05-25T04:33:44.913Z,12.90
2019-05-25T04:34:49.240Z,12.70
2019-05-25T04:35:54.168Z,12.70
2019-05-25T04:37:00.477Z,12.80
2019-05-25T04:38:05.400Z,12.60
2019-05-25T04:39:09.756Z,12.60
2019-05-25T04:40:16.237Z,12.50
2019-05-25T04:41:20.705Z,12.50
2019-05-25T04:42:25.623Z,12.50
2019-05-25T04:43:30.007Z,12.60
2019-05-25T04:44:35.111Z,12.50
2019-05-25T04:45:41.806Z,12.80
2019-05-25T04:46:49.356Z,13.00
2019-05-25T04:47:53.704Z,13.20
2019-05-25T04:48:58.661Z,13.40
2019-05-25T04:50:03.095Z,13.40
2019-05-25T04:51:08.184Z,13.50
2019-05-25T04:52:12.655Z,13.40
2019-05-25T04:53:17.590Z,13.70
2019-05-25T04:54:21.946Z,13.90
2019-05-25T04:55:26.897Z,13.90
2019-05-25T04:56:39.324Z,13.80
2019-05-25T04:57:37.950Z,13.80
2019-05-25T04:58:42.399Z,13.80
2019-05-25T04:59:47.461Z,13.80
2019-05-25T05:00:51.959Z,13.90
2019-05-25T05:01:56.935Z,14.20
2019-05-25T05:03:01.267Z,14.40
2019-05-25T05:04:06.214Z,14.40
2019-05-25T05:05:10.819Z,14.50
2019-05-25T05:06:15.793Z,14.50
2019-05-25T05:07:20.108Z,14.30
2019-05-25T05:08:25.180Z,14.30
2019-05-25T05:09:29.644Z,14.30
2019-05-25T05:10:34.792Z,14.30
2019-05-25T05:11:39.321Z,14.20
2019-05-25T05:12:44.277Z,14.10
2019-05-25T05:13:48.577Z,14.00
2019-05-25T05:14:56.346Z,14.10
2019-05-25T05:15:59.510Z,14.40
2019-05-25T05:17:05.631Z,14.50
2019-05-25T05:18:09.972Z,14.40
2019-05-25T05:19:14.977Z,14.30
2019-05-25T05:20:19.643Z,14.20
2019-05-25T05:21:24.673Z,14.20
2019-05-25T05:22:29.664Z,14.20
2019-05-25T05:23:34.821Z,14.30
2019-05-25T05:24:39.991Z,14.30
2019-05-25T05:25:44.887Z,14.30
2019-05-25T05:26:55.659Z,14.30
2019-05-25T05:27:58.758Z,14.30
2019-05-25T05:29:04.151Z,14.40
2019-05-25T05:30:10.173Z,14.70
2019-05-25T05:31:23.111Z,14.60
2019-05-25T05:32:27.508Z,14.60
2019-05-25T05:33:28.139Z,14.80
2019-05-25T05:34:34.443Z,15.00
2019-05-25T05:35:39.316Z,15.00
2019-05-25T05:36:45.559Z,15.10
2019-05-25T05:37:50.610Z,15.00
2019-05-25T05:38:56.416Z,15.10
2019-05-25T05:40:01.001Z,15.10
2019-05-25T05:41:06.356Z,15.30
2019-05-25T05:42:14.126Z,15.50
2019-05-25T05:43:21.865Z,15.70
2019-05-25T05:44:28.574Z,15.50
2019-05-25T05:45:35.413Z,15.50
2019-05-25T05:46:41.726Z,15.30
2019-05-25T05:47:48.946Z,15.20
2019-05-25T05:48:54.921Z,15.00
2019-05-25T05:50:03.048Z,14.80
2019-05-25T05:51:10.856Z,14.70
2019-05-25T05:52:20.316Z,14.60
2019-05-25T05:53:26.296Z,14.70
2019-05-25T05:54:33.179Z,14.50
2019-05-25T05:55:37.641Z,14.50
2019-05-25T05:56:42.605Z,14.60
2019-05-25T05:57:47.172Z,14.70
2019-05-25T05:58:52.177Z,14.80
2019-05-25T05:59:56.544Z,14.80
2019-05-25T06:01:01.613Z,14.60
2019-05-25T06:02:06.061Z,14.50
2019-05-25T06:03:11.317Z,14.50
2019-05-25T06:04:17.374Z,14.40
2019-05-25T06:05:22.472Z,14.30
2019-05-25T06:06:26.944Z,14.20
2019-05-25T06:07:31.892Z,14.20
2019-05-25T06:08:36.245Z,14.10
2019-05-25T06:09:41.198Z,14.30
2019-05-25T06:10:45.684Z,14.40
2019-05-25T06:11:50.792Z,14.50
2019-05-25T06:12:55.284Z,14.90
2019-05-25T06:14:00.234Z,15.10
2019-05-25T06:15:05.444Z,15.20
2019-05-25T06:16:10.432Z,15.30
2019-05-25T06:17:16.200Z,15.30
2019-05-25T06:18:21.319Z,15.10
2019-05-25T06:19:26.423Z,14.90
2019-05-25T06:20:31.585Z,14.70
2019-05-25T06:21:35.964Z,14.60
2019-05-25T06:22:40.879Z,14.50
2019-05-25T06:23:45.288Z,14.50
2019-05-25T06:24:50.282Z,14.40
2019-05-25T06:25:54.608Z,14.40
2019-05-25T06:26:59.687Z,14.40
2019-05-25T06:28:04.189Z,14.20
2019-05-25T06:29:09.071Z,14.10
2019-05-25T06:30:14.705Z,14.00
2019-05-25T06:31:19.628Z,14.10
2019-05-25T06:32:24.098Z,14.10
2019-05-25T06:33:29.038Z,14.10
2019-05-25T06:34:33.441Z,14.20
2019-05-25T06:35:38.757Z,14.20
2019-05-25T06:36:43.136Z,14.20
2019-05-25T06:37:48.336Z,14.20
2019-05-25T06:38:52.685Z,14.10
2019-05-25T06:39:57.586Z,14.20
2019-05-25T06:41:02.222Z,14.30
2019-05-25T06:42:07.304Z,14.40
2019-05-25T06:43:11.693Z,14.50
2019-05-25T06:44:16.736Z,14.60
2019-05-25T06:45:21.370Z,14.70
2019-05-25T06:46:26.596Z,14.80
2019-05-25T06:47:30.944Z,14.90
2019-05-25T06:48:38.747Z,15.10
2019-05-25T06:49:43.213Z,15.30
2019-05-25T06:50:48.252Z,15.50
2019-05-25T06:51:52.571Z,15.80
2019-05-25T06:52:58.159Z,16.10
2019-05-25T06:54:02.916Z,16.60
2019-05-25T06:55:08.202Z,17.00
2019-05-25T06:56:12.679Z,17.40
2019-05-25T06:57:18.769Z,17.60
2019-05-25T06:58:23.239Z,17.90
2019-05-25T06:59:28.252Z,18.10
2019-05-25T07:00:32.774Z,18.40
2019-05-25T07:01:37.800Z,18.50
2019-05-25T07:02:42.174Z,18.90
2019-05-25T07:03:47.242Z,19.10
2019-05-25T07:04:51.894Z,19.10
2019-05-25T07:05:56.799Z,19.00
2019-05-25T07:07:01.213Z,19.10
2019-05-25T07:08:06.237Z,19.10
2019-05-25T07:09:10.860Z,19.10
2019-05-25T07:10:16.285Z,19.00
2019-05-25T07:11:20.648Z,19.00
2019-05-25T07:12:25.593Z,19.00
2019-05-25T07:13:30.064Z,18.90
2019-05-25T07:14:35.396Z,18.80
2019-05-25T07:15:39.809Z,18.70
2019-05-25T07:16:44.827Z,18.50
2019-05-25T07:17:49.229Z,18.40
2019-05-25T07:18:54.229Z,18.10
2019-05-25T07:19:58.757Z,17.90
2019-05-25T07:21:03.780Z,17.60
2019-05-25T07:22:08.096Z,17.40
2019-05-25T07:23:13.052Z,17.30
2019-05-25T07:24:17.484Z,17.20
2019-05-25T07:25:22.785Z,17.10
2019-05-25T07:26:27.561Z,16.90
2019-05-25T07:27:32.488Z,16.80
2019-05-25T07:28:36.907Z,16.80
2019-05-25T07:29:41.982Z,16.70
2019-05-25T07:30:46.769Z,16.80
2019-05-25T07:31:51.960Z,16.80
2019-05-25T07:32:56.380Z,16.70
2019-05-25T07:34:02.719Z,16.60
2019-05-25T07:35:08.387Z,16.60
2019-05-25T07:36:14.867Z,16.50
2019-05-25T07:37:20.757Z,16.60
2019-05-25T07:38:25.659Z,17.10
2019-05-25T07:39:29.991Z,17.90
2019-05-25T07:40:35.090Z,18.70
2019-05-25T07:41:39.920Z,19.40
2019-05-25T07:42:44.992Z,19.80
2019-05-25T07:43:49.312Z,19.90
2019-05-25T07:44:54.373Z,19.50
2019-05-25T07:45:58.838Z,19.10
2019-05-25T07:47:03.794Z,18.90
2019-05-25T07:48:08.224Z,18.80
2019-05-25T07:49:13.200Z,18.70
2019-05-25T07:50:17.686Z,18.70
2019-05-25T07:51:22.668Z,18.70
2019-05-25T07:52:27.374Z,18.60
2019-05-25T07:53:33.849Z,18.50
2019-05-25T07:54:38.208Z,18.40
2019-05-25T07:55:43.202Z,18.50
2019-05-25T07:56:47.814Z,18.30
2019-05-25T07:57:52.801Z,18.40
2019-05-25T07:58:57.235Z,18.60
2019-05-25T08:00:02.336Z,18.60
2019-05-25T08:01:06.723Z,18.60
2019-05-25T08:02:11.746Z,18.60
2019-05-25T08:03:16.257Z,18.60
2019-05-25T08:04:21.250Z,18.70
2019-05-25T08:05:25.843Z,18.80
2019-05-25T08:06:31.148Z,19.00
2019-05-25T08:07:35.651Z,19.50
2019-05-25T08:08:40.689Z,20.50
2019-05-25T08:09:45.076Z,21.30
2019-05-25T08:10:50.133Z,22.20
2019-05-25T08:11:54.473Z,22.60
2019-05-25T08:12:59.470Z,22.40
2019-05-25T08:14:04.098Z,21.90
2019-05-25T08:15:09.256Z,21.60
2019-05-25T08:16:14.857Z,21.60
2019-05-25T08:17:19.786Z,21.90
2019-05-25T08:18:24.217Z,22.50
2019-05-25T08:19:29.309Z,23.20
2019-05-25T08:20:33.809Z,23.70
2019-05-25T08:21:38.791Z,24.30
2019-05-25T08:22:43.340Z,24.40
2019-05-25T08:23:48.314Z,24.30
2019-05-25T08:24:52.773Z,24.20
2019-05-25T08:25:57.941Z,23.70
2019-05-25T08:27:02.372Z,23.40
2019-05-25T08:28:10.507Z,23.40
2019-05-25T08:29:14.927Z,23.80
2019-05-25T08:30:21.200Z,24.60
2019-05-25T08:31:25.756Z,25.30
2019-05-25T08:32:32.297Z,25.40
2019-05-25T08:33:36.824Z,25.30
2019-05-25T08:34:42.109Z,25.10
2019-05-25T08:35:46.650Z,24.60
2019-05-25T08:36:51.949Z,24.30
2019-05-25T08:37:56.425Z,24.00
2019-05-25T08:39:01.458Z,23.90
2019-05-25T08:40:06.641Z,23.90
2019-05-25T08:41:12.006Z,23.30
2019-05-25T08:42:16.357Z,23.00
2019-05-25T08:43:21.366Z,22.60
2019-05-25T08:44:25.851Z,22.50
2019-05-25T08:45:30.773Z,22.90
2019-05-25T08:46:35.283Z,23.60
2019-05-25T08:47:42.181Z,24.20
2019-05-25T08:48:46.582Z,24.80
2019-05-25T08:49:51.578Z,25.50
2019-05-25T08:50:59.414Z,25.80
2019-05-25T08:52:04.271Z,25.50
2019-05-25T08:53:09.008Z,24.60
2019-05-25T08:54:14.614Z,23.80
2019-05-25T08:55:19.271Z,23.40
2019-05-25T08:56:24.229Z,23.20
2019-05-25T08:57:28.766Z,23.00
2019-05-25T08:58:47.591Z,22.30
2019-05-25T08:59:40.102Z,21.40
2019-05-25T09:00:45.105Z,20.90
2019-05-25T09:01:49.970Z,20.70
2019-05-25T09:02:55.249Z,20.60
2019-05-25T09:03:59.680Z,20.50
2019-05-25T09:05:05.338Z,20.50
2019-05-25T09:06:09.883Z,20.20
2019-05-25T09:07:14.994Z,20.00
2019-05-25T09:08:19.411Z,19.90
2019-05-25T09:09:26.223Z,20.00
2019-05-25T09:10:30.665Z,20.00
2019-05-25T09:11:35.718Z,19.90
2019-05-25T09:12:40.348Z,19.90
2019-05-25T09:13:45.357Z,19.80
2019-05-25T09:14:49.756Z,20.00
2019-05-25T09:15:54.774Z,20.00
2019-05-25T09:17:01.026Z,20.10
2019-05-25T09:18:07.812Z,20.30
2019-05-25T09:19:12.238Z,20.60
2019-05-25T09:20:17.361Z,21.40
2019-05-25T09:21:22.105Z,21.70
2019-05-25T09:22:28.287Z,21.60
2019-05-25T09:23:32.813Z,21.30
2019-05-25T09:24:39.452Z,21.10
2019-05-25T09:25:43.872Z,21.20
2019-05-25T09:26:48.900Z,21.10
2019-05-25T09:27:53.351Z,21.20
2019-05-25T09:29:04.347Z,21.20
2019-05-25T09:30:05.383Z,21.20
2019-05-25T09:31:10.452Z,21.20
2019-05-25T09:32:14.923Z,21.40
2019-05-25T09:33:20.075Z,22.00
2019-05-25T09:34:24.706Z,22.30
2019-05-25T09:35:29.735Z,22.60
2019-05-25T09:36:34.465Z,22.70
2019-05-25T09:37:39.503Z,23.00
2019-05-25T09:38:44.016Z,23.60
2019-05-25T09:39:49.046Z,24.20
2019-05-25T09:40:53.403Z,24.50
2019-05-25T09:41:58.439Z,24.50
2019-05-25T09:43:03.947Z,24.30
2019-05-25T09:44:08.863Z,24.20
2019-05-25T09:45:14.303Z,23.80
2019-05-25T09:46:19.544Z,23.00
2019-05-25T09:47:24.097Z,22.40
2019-05-25T09:48:30.038Z,22.10
2019-05-25T09:49:34.376Z,22.10
2019-05-25T09:50:39.463Z,22.30
2019-05-25T09:51:48.423Z,22.60
2019-05-25T09:52:51.710Z,22.60
2019-05-25T09:53:56.160Z,22.60
2019-05-25T09:55:01.150Z,22.80
2019-05-25T09:56:05.530Z,22.80
2019-05-25T09:57:10.932Z,22.50
2019-05-25T09:58:15.692Z,22.30
2019-05-25T09:59:20.836Z,22.40
2019-05-25T10:00:25.286Z,22.30
2019-05-25T10:01:30.407Z,22.10
2019-05-25T10:02:34.825Z,21.90
2019-05-25T10:03:40.399Z,22.10
2019-05-25T10:04:44.912Z,21.90
2019-05-25T10:05:51.661Z,21.70
2019-05-25T10:06:56.016Z,21.50
2019-05-25T10:08:00.941Z,21.50
2019-05-25T10:09:07.162Z,21.50
2019-05-25T10:10:12.751Z,21.20
2019-05-25T10:11:17.100Z,21.30
2019-05-25T10:12:22.344Z,21.10
2019-05-25T10:13:26.708Z,20.80
2019-05-25T10:14:31.690Z,20.70
2019-05-25T10:15:36.302Z,20.70
2019-05-25T10:16:41.380Z,20.70
2019-05-25T10:17:45.815Z,20.80
2019-05-25T10:18:50.867Z,20.90
2019-05-25T10:19:55.270Z,20.70
2019-05-25T10:21:00.305Z,21.00
2019-05-25T10:22:06.081Z,21.10
2019-05-25T10:23:11.241Z,21.50
2019-05-25T10:24:15.612Z,21.70
2019-05-25T10:25:20.905Z,21.90
2019-05-25T10:26:25.244Z,22.10
2019-05-25T10:27:30.196Z,22.20
2019-05-25T10:28:34.794Z,22.20
2019-05-25T10:29:39.921Z,22.10
2019-05-25T10:30:44.331Z,22.10
2019-05-25T10:31:49.261Z,22.10
2019-05-25T10:32:53.604Z,22.00
2019-05-25T10:33:58.659Z,21.80
2019-05-25T10:35:05.028Z,21.60
2019-05-25T10:36:10.133Z,21.40
2019-05-25T10:37:14.601Z,21.20
2019-05-25T10:38:19.644Z,21.20
2019-05-25T10:39:24.169Z,21.10
2019-05-25T10:40:29.165Z,21.10
2019-05-25T10:41:33.589Z,21.10
2019-05-25T10:42:38.850Z,21.20
2019-05-25T10:43:43.307Z,21.20
2019-05-25T10:44:48.568Z,21.30
2019-05-25T10:45:53.110Z,21.40
2019-05-25T10:46:58.140Z,21.60
2019-05-25T10:48:04.506Z,21.60
2019-05-25T10:49:11.736Z,21.50
2019-05-25T10:50:16.939Z,21.40
2019-05-25T10:51:23.146Z,21.30
2019-05-25T10:52:28.252Z,21.20
2019-05-25T10:53:33.266Z,21.20
2019-05-25T10:54:37.886Z,21.10
2019-05-25T10:55:43.292Z,20.90
2019-05-25T10:56:48.854Z,20.90
2019-05-25T10:57:53.835Z,21.00
2019-05-25T10:58:58.167Z,21.10
2019-05-25T11:00:05.591Z,21.10
2019-05-25T11:01:11.520Z,20.90
2019-05-25T11:02:16.532Z,21.00
2019-05-25T11:03:20.945Z,21.00
2019-05-25T11:04:26.031Z,20.70
2019-05-25T11:05:30.409Z,20.50
2019-05-25T11:06:35.519Z,20.50
2019-05-25T11:07:39.852Z,20.70
2019-05-25T11:08:45.560Z,20.70
2019-05-25T11:09:50.146Z,20.60
2019-05-25T11:10:55.215Z,20.50
2019-05-25T11:11:59.595Z,20.50
2019-05-25T11:13:04.550Z,20.30
2019-05-25T11:14:08.938Z,20.20
2019-05-25T11:15:14.770Z,20.20
2019-05-25T11:16:19.137Z,20.30
2019-05-25T11:17:24.251Z,20.30
2019-05-25T11:18:28.746Z,20.40
2019-05-25T11:19:33.730Z,20.50
2019-05-25T11:20:38.105Z,20.60
2019-05-25T11:21:43.125Z,20.50
2019-05-25T11:22:47.662Z,20.60
2019-05-25T11:23:52.696Z,20.90
2019-05-25T11:24:57.168Z,20.90
2019-05-25T11:26:02.120Z,20.80
2019-05-25T11:27:06.496Z,20.60
2019-05-25T11:28:11.571Z,20.30
2019-05-25T11:29:15.969Z,20.10
2019-05-25T11:30:21.316Z,20.10
2019-05-25T11:31:25.893Z,20.10
2019-05-25T11:32:30.832Z,20.10
2019-05-25T11:33:36.486Z,20.20
2019-05-25T11:34:41.774Z,20.30
2019-05-25T11:35:46.197Z,20.30
2019-05-25T11:36:51.274Z,20.40
2019-05-25T11:37:55.601Z,20.50
2019-05-25T11:39:00.595Z,20.60
2019-05-25T11:40:06.000Z,20.60
2019-05-25T11:41:11.993Z,20.70
2019-05-25T11:42:16.558Z,20.90
2019-05-25T11:43:21.537Z,20.90
2019-05-25T11:44:26.369Z,21.00
2019-05-25T11:45:31.372Z,21.20
2019-05-25T11:46:36.152Z,21.30
2019-05-25T11:47:41.373Z,21.40
2019-05-25T11:48:45.763Z,21.50
2019-05-25T11:49:51.902Z,21.50
2019-05-25T11:50:56.560Z,21.60
2019-05-25T11:52:01.581Z,21.60
2019-05-25T11:53:06.268Z,21.60
2019-05-25T11:54:11.668Z,21.60
2019-05-25T11:55:19.539Z,21.40
2019-05-25T11:56:25.274Z,21.40
2019-05-25T11:57:31.016Z,21.50
2019-05-25T11:58:46.917Z,21.60
2019-05-25T11:59:43.488Z,21.60
2019-05-25T12:00:51.768Z,21.60
2019-05-25T12:01:56.084Z,21.60
2019-05-25T12:03:02.472Z,21.70
2019-05-25T12:04:06.955Z,21.60
2019-05-25T12:05:13.453Z,21.70
2019-05-25T12:06:17.980Z,21.90
2019-05-25T12:07:22.964Z,22.20
2019-05-25T12:08:27.330Z,22.50
2019-05-25T12:09:32.535Z,22.50
2019-05-25T12:10:37.394Z,22.20
2019-05-25T12:11:42.568Z,22.00
2019-05-25T12:12:48.082Z,21.50
2019-05-25T12:13:53.111Z,21.30
2019-05-25T12:14:57.577Z,21.30
2019-05-25T12:16:02.586Z,21.20
2019-05-25T12:17:07.054Z,21.20
2019-05-25T12:18:12.132Z,21.20
2019-05-25T12:19:16.596Z,21.20
2019-05-25T12:20:22.095Z,21.10
2019-05-25T12:21:27.709Z,21.20
2019-05-25T12:22:32.757Z,21.20
2019-05-25T12:23:37.092Z,21.20
2019-05-25T12:24:42.094Z,21.00
2019-05-25T12:25:46.489Z,21.10
2019-05-25T12:26:51.720Z,21.30
2019-05-25T12:27:57.576Z,21.10
2019-05-25T12:29:02.843Z,21.10
2019-05-25T12:30:08.059Z,21.10
2019-05-25T12:31:13.088Z,21.00
2019-05-25T12:32:17.704Z,20.80
2019-05-25T12:33:22.652Z,20.90
2019-05-25T12:34:28.851Z,20.90
2019-05-25T12:35:33.873Z,21.00
2019-05-25T12:36:38.209Z,21.10
2019-05-25T12:37:43.122Z,21.00
2019-05-25T12:38:47.832Z,20.80
2019-05-25T12:39:52.909Z,20.60
2019-05-25T12:40:58.729Z,20.50
2019-05-25T12:42:04.000Z,20.50
2019-05-25T12:43:08.596Z,20.60
2019-05-25T12:44:13.907Z,20.40
2019-05-25T12:45:18.546Z,20.10
2019-05-25T12:46:23.642Z,20.00
2019-05-25T12:47:28.214Z,19.80
2019-05-25T12:48:33.305Z,19.70
2019-05-25T12:49:50.134Z,19.50
2019-05-25T12:50:44.716Z,19.20
2019-05-25T12:51:49.260Z,19.10
2019-05-25T12:52:54.295Z,19.00
2019-05-25T12:53:58.778Z,19.00
2019-05-25T12:55:04.010Z,19.20
2019-05-25T12:56:08.561Z,19.30
2019-05-25T12:57:13.772Z,19.30
2019-05-25T12:58:18.241Z,19.50
2019-05-25T12:59:23.193Z,19.50
2019-05-25T13:00:27.655Z,19.60
2019-05-25T13:01:32.733Z,19.50
2019-05-25T13:02:37.645Z,19.50
2019-05-25T13:03:42.683Z,19.60
2019-05-25T13:04:47.569Z,19.60
2019-05-25T13:05:52.666Z,19.60
2019-05-25T13:06:56.980Z,19.80
2019-05-25T13:08:02.271Z,19.90
2019-05-25T13:09:07.593Z,19.90
2019-05-25T13:10:13.129Z,19.80
2019-05-25T13:11:17.530Z,19.80
2019-05-25T13:12:23.590Z,19.60
2019-05-25T13:13:28.120Z,19.60
2019-05-25T13:14:33.145Z,19.70
2019-05-25T13:15:37.576Z,20.00
2019-05-25T13:16:42.802Z,20.20
2019-05-25T13:17:47.384Z,20.40
2019-05-25T13:18:52.486Z,20.50
2019-05-25T13:19:58.745Z,20.60
2019-05-25T13:21:03.994Z,20.60
2019-05-25T13:22:08.359Z,20.60
2019-05-25T13:23:13.431Z,20.70
2019-05-25T13:24:17.844Z,20.80
2019-05-25T13:25:22.796Z,20.70
2019-05-25T13:26:28.363Z,20.70
2019-05-25T13:27:33.374Z,20.90
2019-05-25T13:28:37.678Z,20.80
2019-05-25T13:29:42.574Z,20.80
2019-05-25T13:30:48.304Z,20.70
2019-05-25T13:31:53.437Z,20.50
2019-05-25T13:32:57.977Z,20.40
2019-05-25T13:34:03.018Z,20.10
2019-05-25T13:35:07.805Z,20.00
2019-05-25T13:36:13.284Z,19.80
2019-05-25T13:37:17.974Z,19.80
2019-05-25T13:38:22.984Z,19.80
2019-05-25T13:39:27.466Z,19.70
2019-05-25T13:40:34.271Z,19.50
2019-05-25T13:41:38.649Z,19.50
2019-05-25T13:42:43.972Z,19.60
2019-05-25T13:43:50.145Z,19.60
2019-05-25T13:44:55.365Z,19.70
2019-05-25T13:46:00.012Z,19.70
2019-05-25T13:47:05.129Z,19.90
2019-05-25T13:48:09.560Z,20.00
2019-05-25T13:49:16.529Z,19.90
2019-05-25T13:50:20.955Z,19.80
2019-05-25T13:51:25.910Z,19.80
2019-05-25T13:52:30.317Z,19.80
2019-05-25T13:53:35.436Z,19.80
2019-05-25T13:54:41.400Z,19.70
2019-05-25T13:55:46.339Z,19.60
2019-05-25T13:56:51.105Z,19.60
2019-05-25T13:57:56.148Z,19.50
2019-05-25T13:59:00.796Z,19.40
2019-05-25T14:00:06.844Z,19.30